createdAt,value
2022-11-22T00:05:51.051Z,100
2022-11-22T00:25:52.029Z,100
2022-11-22T00:35:52.549Z,100
2022-11-22T00:45:53.299Z,100
2022-11-22T00:55:54.348Z,100
2022-11-22T01:05:54.545Z,100
2022-11-22T01:15:55.259Z,100
2022-11-22T01:25:56.241Z,100
2022-11-22T01:35:56.367Z,100
2022-11-22T01:45:56.500Z,100
2022-11-22T01:55:56.606Z,100
2022-11-22T02:05:57.213Z,100
2022-11-22T02:15:58.244Z,100
2022-11-22T02:35:59.589Z,100
2022-11-22T02:46:00.149Z,100
2022-11-22T02:56:00.380Z,100
2022-11-22T03:06:01.077Z,100
2022-11-22T03:16:01.672Z,100
2022-11-22T03:26:02.504Z,100
2022-11-22T03:36:03.308Z,100
2022-11-22T03:46:03.465Z,100
2022-11-22T03:56:04.430Z,100
2022-11-22T04:06:04.560Z,100
2022-11-22T04:16:05.602Z,100
2022-11-22T04:26:06.241Z,100
2022-11-22T04:36:11.939Z,100
2022-11-22T04:46:06.888Z,100
2022-11-22T04:56:07.075Z,100
2022-11-22T05:06:07.394Z,100
2022-11-22T05:16:07.537Z,100
2022-11-22T05:26:07.713Z,100
2022-11-22T05:46:09.170Z,100
2022-11-22T05:56:09.897Z,100
2022-11-22T06:06:10.842Z,100
2022-11-22T06:16:11.273Z,100
2022-11-22T06:36:12.945Z,100
2022-11-22T06:46:13.876Z,100
2022-11-22T06:56:14.716Z,100
2022-11-22T07:06:14.883Z,100
2022-11-22T07:16:15.901Z,100
2022-11-22T07:26:16.946Z,100
2022-11-22T07:46:18.591Z,100
2022-11-22T07:56:19.042Z,100
2022-11-22T08:06:19.257Z,100
2022-11-22T08:16:19.452Z,100
2022-11-22T08:26:19.714Z,100
2022-11-22T08:46:20.901Z,100
2022-11-22T08:56:21.521Z,100
2022-11-22T09:26:23.173Z,97
2022-11-22T09:36:24.289Z,95
2022-11-22T09:46:24.867Z,92
2022-11-22T09:56:25.146Z,91
2022-11-22T10:06:25.460Z,89
2022-11-22T10:16:25.608Z,86
2022-11-22T10:26:25.761Z,86
2022-11-22T10:36:26.334Z,86
2022-11-22T10:46:26.836Z,85
2022-11-22T10:56:27.522Z,85
2022-11-22T11:16:29.544Z,83
2022-11-22T11:36:31.235Z,82
2022-11-22T11:46:31.484Z,82
2022-11-22T12:06:32.874Z,83
2022-11-22T12:16:33.320Z,83
2022-11-22T12:36:34.482Z,83
2022-11-22T12:56:35.788Z,82
2022-11-22T13:16:37.483Z,82
2022-11-22T13:36:38.826Z,81
2022-11-22T13:46:39.092Z,80
2022-11-22T13:56:39.244Z,80
2022-11-22T14:26:41.460Z,79
2022-11-22T14:36:42.457Z,79
2022-11-22T14:46:53.057Z,80
2022-11-22T14:56:44.119Z,80
2022-11-22T16:06:48.514Z,84
2022-11-22T16:16:49.107Z,84
2022-11-22T16:26:49.614Z,85
2022-11-22T16:36:49.829Z,85
2022-11-22T16:46:50.148Z,86
2022-11-22T16:56:50.436Z,86
2022-11-22T17:06:50.638Z,86
2022-11-22T17:16:51.493Z,87
2022-11-22T17:26:51.922Z,87
2022-11-22T17:46:53.137Z,89
2022-11-22T17:56:53.268Z,90
2022-11-22T18:06:53.783Z,91
2022-11-22T18:16:54.633Z,92
2022-11-22T18:26:55.151Z,95
2022-11-22T18:37:00.649Z,96
2022-11-22T19:06:57.958Z,100
2022-11-22T19:16:58.873Z,100
2022-11-22T19:26:59.374Z,100
2022-11-22T19:36:59.803Z,100
2022-11-22T19:47:00.825Z,100
2022-11-22T19:57:01.480Z,100
2022-11-22T20:07:02.194Z,100
2022-11-22T20:17:02.903Z,100
2022-11-22T20:27:03.774Z,100
2022-11-22T20:47:04.410Z,100
2022-11-22T20:57:05.511Z,100
2022-11-22T21:07:06.556Z,100
2022-11-22T21:17:35.747Z,100
2022-11-22T21:27:07.714Z,100
2022-11-22T21:37:08.565Z,100
2022-11-22T21:47:09.389Z,100
2022-11-22T21:57:10.390Z,100
2022-11-22T22:07:23.881Z,100
2022-11-22T22:17:11.894Z,100
2022-11-22T22:27:12.227Z,100
2022-11-22T22:37:12.352Z,100
2022-11-22T22:47:13.007Z,100
2022-11-22T22:57:13.384Z,100
2022-11-22T23:07:13.919Z,100
2022-11-22T23:17:14.503Z,100
2022-11-22T23:27:14.780Z,100
2022-11-22T23:37:15.407Z,100
2022-11-22T23:47:16.060Z,100
2022-11-22T23:57:16.699Z,100
